createdAt,value
2022-12-18T00:01:29.279Z,73.24
2022-12-18T00:03:32.256Z,74.13
2022-12-18T00:05:35.441Z,73.76
2022-12-18T00:07:38.876Z,73.19
2022-12-18T00:09:41.635Z,74.21
2022-12-18T00:11:45.896Z,74.09
2022-12-18T00:13:49.719Z,73.56
2022-12-18T00:15:52.559Z,74.45
2022-12-18T00:17:59.385Z,73.21
2022-12-18T00:20:02.274Z,73.79
2022-12-18T00:22:05.968Z,73.34
2022-12-18T00:24:09.084Z,73.54
2022-12-18T00:26:14.466Z,72.60
2022-12-18T00:28:18.598Z,73.99
2022-12-18T00:30:22.654Z,72.43
2022-12-18T00:32:25.519Z,71.84
2022-12-18T00:34:28.384Z,72.16
2022-12-18T00:36:32.902Z,72.66
2022-12-18T00:38:36.151Z,72.13
2022-12-18T00:40:39.025Z,73.51
2022-12-18T00:42:59.394Z,73.03
2022-12-18T00:45:09.073Z,73.15
2022-12-18T00:47:15.121Z,73.50
2022-12-18T00:49:22.185Z,71.93
2022-12-18T00:51:25.433Z,72.17
2022-12-18T00:53:28.203Z,72.44
2022-12-18T00:55:32.569Z,72.79
2022-12-18T00:57:35.471Z,72.84
2022-12-18T00:59:38.400Z,73.31
2022-12-18T01:01:42.743Z,73.08
2022-12-18T01:03:46.092Z,73.27
2022-12-18T01:05:48.906Z,72.17
2022-12-18T01:07:51.726Z,72.96
2022-12-18T01:09:55.925Z,73.49
2022-12-18T01:11:58.692Z,72.11
2022-12-18T01:14:02.106Z,71.88
2022-12-18T01:16:06.785Z,73.26
2022-12-18T01:18:12.709Z,72.36
2022-12-18T01:20:15.957Z,73.59
2022-12-18T01:22:18.829Z,73.12
2022-12-18T01:24:21.763Z,74.02
2022-12-18T01:26:26.865Z,73.46
2022-12-18T01:28:29.635Z,72.83
2022-12-18T01:30:32.410Z,71.65
2022-12-18T01:32:35.492Z,71.85
2022-12-18T01:34:40.356Z,72.55
2022-12-18T01:36:43.139Z,71.83
2022-12-18T01:38:46.378Z,72.44
2022-12-18T01:40:49.152Z,72.06
2022-12-18T01:42:53.150Z,71.59
2022-12-18T01:44:59.756Z,71.94
2022-12-18T01:47:02.679Z,73.14
2022-12-18T01:49:05.579Z,73.30
2022-12-18T01:51:11.916Z,71.61
2022-12-18T01:53:17.735Z,72.53
2022-12-18T01:55:23.635Z,72.26
2022-12-18T01:57:27.407Z,72.82
2022-12-18T01:59:33.772Z,72.04
2022-12-18T02:01:37.209Z,73.53
2022-12-18T02:03:43.738Z,74.03
2022-12-18T02:05:51.327Z,74.24
2022-12-18T02:08:05.609Z,73.52
2022-12-18T02:10:16.993Z,72.85
2022-12-18T02:12:22.779Z,73.12
2022-12-18T02:14:36.179Z,72.28
2022-12-18T02:16:48.130Z,73.38
2022-12-18T02:18:55.431Z,73.41
2022-12-18T02:21:06.758Z,72.89
2022-12-18T02:23:26.161Z,73.13
2022-12-18T02:25:42.528Z,73.55
2022-12-18T02:27:48.989Z,73.61
2022-12-18T02:29:58.474Z,72.53
2022-12-18T02:32:08.152Z,73.28
2022-12-18T02:34:12.968Z,73.19
2022-12-18T02:36:20.111Z,72.80
2022-12-18T02:38:25.229Z,72.54
2022-12-18T02:40:30.234Z,73.91
2022-12-18T02:42:35.044Z,74.14
2022-12-18T02:44:46.514Z,73.25
2022-12-18T02:46:54.365Z,73.52
2022-12-18T02:49:03.333Z,72.36
2022-12-18T02:51:25.151Z,72.78
2022-12-18T02:53:39.320Z,72.84
2022-12-18T02:55:53.785Z,71.94
2022-12-18T02:58:00.424Z,73.15
2022-12-18T03:00:14.366Z,72.61
2022-12-18T03:02:23.007Z,73.10
2022-12-18T03:04:30.637Z,73.93
2022-12-18T03:06:39.152Z,73.72
2022-12-18T03:08:46.511Z,73.05
2022-12-18T03:10:55.946Z,73.13
2022-12-18T03:13:02.913Z,73.52
2022-12-18T03:15:17.592Z,73.57
2022-12-18T03:17:22.819Z,72.32
2022-12-18T03:19:31.373Z,72.78
2022-12-18T03:21:40.143Z,71.99
2022-12-18T03:23:50.266Z,73.24
2022-12-18T03:25:56.642Z,72.51
2022-12-18T03:28:05.266Z,73.20
2022-12-18T03:30:13.976Z,73.59
2022-12-18T03:32:22.938Z,74.39
2022-12-18T03:34:31.268Z,73.24
2022-12-18T03:36:36.519Z,74.38
2022-12-18T03:38:39.619Z,73.50
2022-12-18T03:40:53.093Z,73.63
2022-12-18T03:43:02.479Z,73.86
2022-12-18T03:45:15.644Z,75.42
2022-12-18T03:47:29.096Z,74.55
2022-12-18T03:49:40.523Z,75.25
2022-12-18T03:51:51.077Z,74.64
2022-12-18T03:53:59.308Z,74.40
2022-12-18T03:56:08.803Z,74.51
2022-12-18T03:58:20.256Z,73.46
2022-12-18T04:00:37.327Z,72.86
2022-12-18T04:02:50.795Z,72.51
2022-12-18T04:05:03.932Z,74.06
2022-12-18T04:07:08.195Z,73.21
2022-12-18T04:09:15.783Z,72.86
2022-12-18T04:11:22.602Z,73.46
2022-12-18T04:13:26.532Z,72.35
2022-12-18T04:15:29.449Z,72.48
2022-12-18T04:17:35.848Z,72.37
2022-12-18T04:19:38.803Z,72.16
2022-12-18T04:21:41.630Z,72.51
2022-12-18T04:23:47.061Z,73.66
2022-12-18T04:25:49.922Z,73.00
2022-12-18T04:28:02.950Z,73.10
2022-12-18T04:30:07.487Z,73.71
2022-12-18T04:32:10.731Z,74.23
2022-12-18T04:34:15.923Z,74.39
2022-12-18T04:36:24.675Z,74.68
2022-12-18T04:38:27.567Z,74.09
2022-12-18T04:40:38.720Z,73.30
2022-12-18T04:42:48.115Z,73.64
2022-12-18T04:44:50.924Z,73.46
2022-12-18T04:46:53.693Z,73.48
2022-12-18T04:48:57.299Z,73.48
2022-12-18T04:51:01.452Z,73.33
2022-12-18T04:53:03.321Z,72.36
2022-12-18T04:55:06.834Z,73.70
2022-12-18T04:57:09.620Z,73.14
2022-12-18T04:59:12.393Z,73.62
2022-12-18T05:01:17.084Z,73.08
2022-12-18T05:03:20.021Z,73.39
2022-12-18T05:05:22.825Z,73.58
2022-12-18T05:07:27.019Z,72.31
2022-12-18T05:09:29.807Z,72.81
2022-12-18T05:11:32.618Z,72.98
2022-12-18T05:13:36.362Z,72.79
2022-12-18T05:15:39.401Z,71.37
2022-12-18T05:17:42.200Z,72.06
2022-12-18T05:19:44.970Z,70.83
2022-12-18T05:21:47.830Z,71.07
2022-12-18T05:23:51.961Z,72.54
2022-12-18T05:25:55.875Z,72.00
2022-12-18T05:27:57.717Z,72.34
2022-12-18T05:30:00.897Z,72.44
2022-12-18T05:32:03.674Z,72.85
2022-12-18T05:34:06.850Z,72.16
2022-12-18T05:36:11.032Z,72.47
2022-12-18T05:38:13.794Z,72.05
2022-12-18T05:40:18.002Z,72.84
2022-12-18T05:42:20.784Z,72.78
2022-12-18T05:44:23.579Z,71.57
2022-12-18T05:46:26.577Z,71.50
2022-12-18T05:48:29.373Z,72.24
2022-12-18T05:50:32.138Z,71.95
2022-12-18T05:52:37.930Z,71.55
2022-12-18T05:54:41.100Z,71.62
2022-12-18T05:56:48.670Z,71.82
2022-12-18T05:58:53.765Z,72.12
2022-12-18T06:00:56.516Z,73.12
2022-12-18T06:02:59.897Z,71.69
2022-12-18T06:05:02.882Z,70.99
2022-12-18T06:07:05.696Z,71.71
2022-12-18T06:09:10.257Z,72.31
2022-12-18T06:11:13.061Z,72.14
2022-12-18T06:13:17.243Z,72.06
2022-12-18T06:15:20.056Z,72.51
2022-12-18T06:17:23.206Z,72.84
2022-12-18T06:19:25.993Z,71.90
2022-12-18T06:21:29.339Z,72.96
2022-12-18T06:23:32.220Z,72.02
2022-12-18T06:25:34.977Z,72.33
2022-12-18T06:27:37.714Z,71.87
2022-12-18T06:29:41.832Z,72.61
2022-12-18T06:31:44.701Z,72.95
2022-12-18T06:33:47.576Z,73.27
2022-12-18T06:35:50.673Z,71.79
2022-12-18T06:37:53.432Z,72.10
2022-12-18T06:39:57.430Z,71.34
2022-12-18T06:42:00.204Z,71.42
2022-12-18T06:44:03.061Z,72.61
2022-12-18T06:46:07.827Z,71.24
2022-12-18T06:48:10.669Z,72.13
2022-12-18T06:50:14.244Z,71.52
2022-12-18T06:52:18.444Z,71.15
2022-12-18T06:54:21.277Z,71.30
2022-12-18T06:56:25.205Z,71.71
2022-12-18T06:58:28.711Z,72.24
2022-12-18T07:00:31.663Z,70.51
2022-12-18T07:02:36.067Z,69.84
2022-12-18T07:04:39.192Z,71.20
2022-12-18T07:06:41.967Z,70.26
2022-12-18T07:08:45.150Z,71.39
2022-12-18T07:10:52.923Z,71.99
2022-12-18T07:12:58.763Z,69.96
2022-12-18T07:15:01.689Z,70.70
2022-12-18T07:17:04.633Z,69.56
2022-12-18T07:19:10.167Z,70.46
2022-12-18T07:21:15.853Z,71.96
2022-12-18T07:23:18.596Z,71.54
2022-12-18T07:25:21.515Z,71.12
2022-12-18T07:27:25.054Z,70.54
2022-12-18T07:29:27.901Z,69.62
2022-12-18T07:31:30.681Z,71.14
2022-12-18T07:33:34.375Z,71.51
2022-12-18T07:35:38.434Z,71.34
2022-12-18T07:37:41.154Z,71.83
2022-12-18T07:39:44.022Z,71.25
2022-12-18T07:42:07.624Z,71.47
2022-12-18T07:44:11.774Z,71.23
2022-12-18T07:46:16.532Z,71.52
2022-12-18T07:48:19.215Z,71.41
2022-12-18T07:50:22.079Z,70.84
2022-12-18T07:52:26.550Z,71.22
2022-12-18T07:54:29.292Z,71.10
2022-12-18T07:56:32.027Z,71.69
2022-12-18T07:58:35.625Z,70.49
2022-12-18T08:00:38.401Z,71.27
2022-12-18T08:02:41.281Z,70.87
2022-12-18T08:04:45.121Z,71.54
2022-12-18T08:06:48.584Z,71.63
2022-12-18T08:08:53.541Z,71.65
2022-12-18T08:10:56.311Z,71.94
2022-12-18T08:13:04.615Z,71.75
2022-12-18T08:15:08.713Z,70.84
2022-12-18T08:17:11.479Z,71.29
2022-12-18T08:19:14.331Z,71.43
2022-12-18T08:21:19.024Z,70.64
2022-12-18T08:23:26.469Z,69.42
2022-12-18T08:25:32.731Z,70.60
2022-12-18T08:27:35.892Z,70.17
2022-12-18T08:29:39.102Z,70.12
2022-12-18T08:31:42.005Z,70.23
2022-12-18T08:33:44.924Z,71.35
2022-12-18T08:35:47.730Z,70.73
2022-12-18T08:37:50.553Z,70.52
2022-12-18T08:39:53.303Z,71.02
2022-12-18T08:42:15.786Z,70.37
2022-12-18T08:44:35.986Z,70.89
2022-12-18T08:46:40.582Z,71.05
2022-12-18T08:48:43.507Z,70.12
2022-12-18T08:50:55.080Z,71.18
2022-12-18T08:52:57.882Z,70.76
2022-12-18T08:55:00.722Z,70.76
2022-12-18T08:57:04.932Z,70.63
2022-12-18T08:59:07.803Z,71.13
2022-12-18T09:01:12.715Z,70.27
2022-12-18T09:03:15.602Z,70.33
2022-12-18T09:05:18.671Z,71.30
2022-12-18T09:07:21.452Z,71.71
2022-12-18T09:09:24.234Z,71.39
2022-12-18T09:11:29.226Z,71.58
2022-12-18T09:13:33.766Z,70.54
2022-12-18T09:15:36.654Z,70.06
2022-12-18T09:17:39.361Z,71.84
2022-12-18T09:19:42.202Z,71.27
2022-12-18T09:21:48.322Z,70.54
2022-12-18T09:23:51.858Z,70.83
2022-12-18T09:26:00.837Z,71.32
2022-12-18T09:28:03.789Z,70.32
2022-12-18T09:30:09.547Z,70.81
2022-12-18T09:32:15.251Z,70.20
2022-12-18T09:34:22.702Z,69.30
2022-12-18T09:36:25.641Z,70.30
2022-12-18T09:38:28.445Z,71.30
2022-12-18T09:40:36.796Z,70.81
2022-12-18T09:42:40.591Z,70.44
2022-12-18T09:44:47.401Z,70.98
2022-12-18T09:46:57.718Z,70.27
2022-12-18T09:49:05.005Z,70.68
2022-12-18T09:51:15.352Z,70.88
2022-12-18T09:53:22.005Z,70.65
2022-12-18T09:55:36.918Z,71.02
2022-12-18T09:57:47.191Z,70.43
2022-12-18T09:59:55.133Z,70.47
2022-12-18T10:01:59.516Z,69.77
2022-12-18T10:04:03.020Z,70.96
2022-12-18T10:06:13.480Z,71.19
2022-12-18T10:08:24.340Z,70.43
2022-12-18T10:10:38.431Z,69.94
2022-12-18T10:12:48.821Z,69.45
2022-12-18T10:14:58.918Z,69.89
2022-12-18T10:17:12.185Z,69.90
2022-12-18T10:19:27.937Z,70.05
2022-12-18T10:21:35.837Z,70.51
2022-12-18T10:23:48.576Z,70.37
2022-12-18T10:25:57.462Z,70.32
2022-12-18T10:28:09.344Z,70.11
2022-12-18T10:30:16.513Z,69.19
2022-12-18T10:32:22.668Z,69.91
2022-12-18T10:34:25.888Z,69.93
2022-12-18T10:36:29.043Z,70.00
2022-12-18T10:38:33.687Z,69.99
2022-12-18T10:40:50.799Z,69.83
2022-12-18T10:43:05.978Z,69.35
2022-12-18T10:45:12.673Z,69.55
2022-12-18T10:47:20.201Z,69.03
2022-12-18T10:49:28.234Z,69.59
2022-12-18T10:51:34.454Z,69.70
2022-12-18T10:53:39.451Z,69.67
2022-12-18T10:55:46.897Z,69.75
2022-12-18T10:57:49.724Z,70.15
2022-12-18T10:59:55.639Z,69.63
2022-12-18T11:02:00.245Z,70.03
2022-12-18T11:04:10.904Z,70.34
2022-12-18T11:06:16.832Z,69.81
2022-12-18T11:08:23.728Z,69.35
2022-12-18T11:10:32.482Z,69.11
2022-12-18T11:12:35.365Z,68.77
2022-12-18T11:14:47.314Z,71.54
2022-12-18T11:19:25.137Z,70.49
2022-12-18T11:21:29.364Z,69.12
2022-12-18T11:23:32.171Z,67.42
2022-12-18T11:25:36.328Z,67.13
2022-12-18T11:27:41.619Z,66.80
2022-12-18T11:29:46.724Z,66.85
2022-12-18T11:31:49.795Z,67.19
2022-12-18T11:34:27.640Z,66.90
2022-12-18T11:36:24.093Z,66.84
2022-12-18T11:38:30.815Z,67.55
2022-12-18T11:40:41.235Z,66.87
2022-12-18T11:42:50.234Z,67.52
2022-12-18T11:44:59.988Z,67.28
2022-12-18T11:47:11.531Z,67.23
2022-12-18T11:49:19.237Z,67.33
2022-12-18T11:51:30.300Z,67.17
2022-12-18T11:53:38.632Z,67.28
2022-12-18T11:55:48.641Z,65.85
2022-12-18T11:58:00.785Z,65.77
2022-12-18T12:00:12.138Z,65.12
2022-12-18T12:02:35.910Z,66.29
2022-12-18T12:04:50.119Z,66.12
2022-12-18T12:07:03.449Z,66.47
2022-12-18T12:09:16.973Z,65.82
2022-12-18T12:11:30.010Z,65.88
2022-12-18T12:13:44.597Z,65.90
2022-12-18T12:15:57.880Z,66.21
2022-12-18T12:18:11.509Z,65.62
2022-12-18T12:20:23.861Z,65.79
2022-12-18T12:22:35.286Z,66.11
2022-12-18T12:24:53.648Z,66.02
2022-12-18T12:27:04.182Z,65.60
2022-12-18T12:29:21.437Z,64.67
2022-12-18T12:31:38.495Z,65.47
2022-12-18T12:33:51.431Z,65.69
2022-12-18T12:36:04.946Z,65.38
2022-12-18T12:38:12.910Z,65.05
2022-12-18T12:41:02.219Z,65.75
2022-12-18T12:43:28.417Z,65.35
2022-12-18T12:45:55.787Z,65.65
2022-12-18T12:48:00.616Z,65.86
2022-12-18T12:50:13.841Z,64.94
2022-12-18T12:52:23.484Z,65.65
2022-12-18T12:54:28.974Z,66.01
2022-12-18T12:56:41.891Z,65.69
2022-12-18T12:58:53.918Z,64.83
2022-12-18T13:01:05.913Z,64.99
2022-12-18T13:03:17.055Z,64.47
2022-12-18T13:05:26.008Z,64.24
2022-12-18T13:07:34.774Z,64.44
2022-12-18T13:10:23.661Z,64.28
2022-12-18T13:12:47.582Z,64.75
2022-12-18T13:14:50.859Z,65.47
2022-12-18T13:16:53.881Z,65.03
2022-12-18T13:18:59.606Z,64.98
2022-12-18T13:21:11.081Z,65.00
2022-12-18T13:23:37.226Z,64.97
2022-12-18T13:25:40.477Z,65.12
2022-12-18T13:28:07.350Z,64.48
2022-12-18T13:30:58.376Z,65.63
2022-12-18T13:33:51.016Z,65.68
2022-12-18T13:36:05.071Z,65.72
2022-12-18T13:38:23.355Z,65.70
2022-12-18T13:40:59.590Z,67.07
2022-12-18T13:43:15.638Z,66.85
2022-12-18T13:45:41.220Z,66.23
2022-12-18T13:47:45.849Z,66.10
2022-12-18T13:49:48.924Z,66.96
2022-12-18T13:51:54.815Z,66.41
2022-12-18T13:54:00.826Z,67.61
2022-12-18T13:56:04.862Z,66.92
2022-12-18T13:58:14.813Z,66.88
2022-12-18T14:00:36.132Z,66.61
2022-12-18T14:02:39.324Z,66.68
2022-12-18T14:04:42.674Z,67.46
2022-12-18T14:06:47.783Z,66.53
2022-12-18T14:08:51.127Z,66.36
2022-12-18T14:11:23.298Z,67.20
2022-12-18T14:13:31.253Z,66.47
2022-12-18T14:15:36.044Z,65.83
2022-12-18T14:17:39.184Z,66.76
2022-12-18T14:19:46.859Z,66.34
2022-12-18T14:21:51.952Z,66.49
2022-12-18T14:24:14.728Z,66.18
2022-12-18T14:26:23.736Z,66.61
2022-12-18T14:28:28.422Z,65.47
2022-12-18T14:30:33.960Z,65.38
2022-12-18T14:32:37.809Z,65.94
2022-12-18T14:34:40.652Z,66.43
2022-12-18T14:36:43.647Z,66.46
2022-12-18T14:38:51.077Z,66.02
2022-12-18T14:40:55.089Z,65.76
2022-12-18T14:42:57.930Z,66.21
2022-12-18T14:45:45.323Z,64.79
2022-12-18T14:47:50.132Z,65.71
2022-12-18T14:49:53.034Z,66.05
2022-12-18T14:51:57.757Z,65.91
2022-12-18T14:54:05.575Z,66.13
2022-12-18T14:56:15.761Z,66.97
2022-12-18T14:58:20.212Z,66.85
2022-12-18T15:00:25.802Z,65.87
2022-12-18T15:02:30.563Z,66.63
2022-12-18T15:04:36.915Z,66.10
2022-12-18T15:06:40.823Z,66.29
2022-12-18T15:08:44.402Z,66.55
2022-12-18T15:10:49.755Z,67.16
2022-12-18T15:13:09.862Z,66.48
2022-12-18T15:15:47.127Z,66.62
2022-12-18T15:17:50.018Z,66.45
2022-12-18T15:20:00.717Z,66.66
2022-12-18T15:22:06.558Z,67.08
2022-12-18T15:24:20.183Z,66.24
2022-12-18T15:26:24.055Z,66.92
2022-12-18T15:28:30.875Z,67.26
2022-12-18T15:30:33.764Z,66.20
2022-12-18T15:32:37.325Z,66.83
2022-12-18T15:34:40.365Z,67.04
2022-12-18T15:36:45.139Z,66.83
2022-12-18T15:38:48.818Z,66.63
2022-12-18T15:40:51.755Z,66.12
2022-12-18T15:43:14.256Z,66.71
2022-12-18T15:45:17.152Z,66.20
2022-12-18T15:47:21.886Z,65.87
2022-12-18T15:49:25.209Z,65.63
2022-12-18T15:51:31.775Z,66.39
2022-12-18T15:53:36.062Z,66.00
2022-12-18T15:56:00.990Z,66.19
2022-12-18T15:58:04.262Z,66.73
2022-12-18T16:00:08.241Z,67.06
2022-12-18T16:02:18.527Z,66.34
2022-12-18T16:04:23.136Z,66.47
2022-12-18T16:06:25.885Z,66.83
2022-12-18T16:08:28.664Z,66.51
2022-12-18T16:10:32.866Z,67.56
2022-12-18T16:12:35.745Z,67.86
2022-12-18T16:14:38.808Z,68.43
2022-12-18T16:16:42.490Z,67.72
2022-12-18T16:18:45.194Z,67.53
2022-12-18T16:20:47.956Z,67.61
2022-12-18T16:22:51.441Z,67.82
2022-12-18T16:24:55.069Z,67.85
2022-12-18T16:27:01.191Z,68.00
2022-12-18T16:29:03.969Z,67.69
2022-12-18T16:31:07.190Z,68.20
2022-12-18T16:33:11.556Z,68.03
2022-12-18T16:35:15.875Z,68.34
2022-12-18T16:37:18.748Z,68.53
2022-12-18T16:39:22.282Z,67.94
2022-12-18T16:41:34.882Z,68.31
2022-12-18T16:43:39.367Z,67.46
2022-12-18T16:45:42.428Z,67.89
2022-12-18T16:47:45.988Z,68.29
2022-12-18T16:49:51.549Z,67.82
2022-12-18T16:51:54.514Z,67.73
2022-12-18T16:53:57.628Z,67.67
2022-12-18T16:56:00.646Z,68.01
2022-12-18T16:58:03.504Z,67.17
2022-12-18T17:00:09.302Z,68.01
2022-12-18T17:02:15.486Z,68.23
2022-12-18T17:04:19.219Z,68.29
2022-12-18T17:06:22.404Z,67.75
2022-12-18T17:08:25.158Z,68.19
2022-12-18T17:10:28.178Z,68.38
2022-12-18T17:12:30.987Z,68.28
2022-12-18T17:14:34.416Z,68.19
2022-12-18T17:16:38.727Z,68.57
2022-12-18T17:18:42.939Z,68.23
2022-12-18T17:20:45.726Z,68.59
2022-12-18T17:22:48.559Z,67.99
2022-12-18T17:24:51.455Z,68.36
2022-12-18T17:26:54.306Z,68.09
2022-12-18T17:28:58.515Z,67.82
2022-12-18T17:31:01.750Z,68.15
2022-12-18T17:33:06.101Z,68.58
2022-12-18T17:35:09.696Z,68.30
2022-12-18T17:37:12.667Z,68.10
2022-12-18T17:39:20.298Z,67.72
2022-12-18T17:41:24.319Z,68.83
2022-12-18T17:43:27.436Z,67.80
2022-12-18T17:45:30.187Z,68.05
2022-12-18T17:47:33.099Z,68.09
2022-12-18T17:49:37.260Z,68.81
2022-12-18T17:51:42.206Z,68.71
2022-12-18T17:53:45.202Z,67.88
2022-12-18T17:55:54.958Z,68.70
2022-12-18T17:57:57.792Z,68.54
2022-12-18T18:00:00.582Z,68.15
2022-12-18T18:02:03.583Z,68.35
2022-12-18T18:04:07.276Z,68.62
2022-12-18T18:06:11.588Z,68.58
2022-12-18T18:08:14.809Z,67.63
2022-12-18T18:10:17.634Z,67.85
2022-12-18T18:12:38.132Z,68.63
2022-12-18T18:14:41.069Z,68.16
2022-12-18T18:16:45.502Z,68.44
2022-12-18T18:18:48.250Z,68.73
2022-12-18T18:20:51.168Z,68.06
2022-12-18T18:22:58.027Z,68.44
2022-12-18T18:25:02.111Z,68.98
2022-12-18T18:27:05.278Z,68.99
2022-12-18T18:29:09.268Z,68.33
2022-12-18T18:31:13.122Z,68.64
2022-12-18T18:33:16.083Z,68.73
2022-12-18T18:35:45.038Z,69.32
2022-12-18T18:37:41.703Z,69.14
2022-12-18T18:39:46.649Z,68.75
2022-12-18T18:41:50.408Z,69.27
2022-12-18T18:43:55.880Z,68.22
2022-12-18T18:45:59.220Z,69.03
2022-12-18T18:48:02.082Z,69.00
2022-12-18T18:50:05.584Z,68.68
2022-12-18T18:52:08.469Z,69.17
2022-12-18T18:54:11.586Z,68.35
2022-12-18T18:56:45.598Z,68.91
2022-12-18T18:58:40.710Z,69.25
2022-12-18T19:00:43.556Z,68.67
2022-12-18T19:02:47.018Z,68.89
2022-12-18T19:04:49.862Z,69.06
2022-12-18T19:06:52.768Z,69.16
2022-12-18T19:08:56.532Z,68.56
2022-12-18T19:11:00.963Z,68.49
2022-12-18T19:13:22.675Z,68.45
2022-12-18T19:15:25.465Z,68.75
2022-12-18T19:17:30.645Z,68.31
2022-12-18T19:19:34.403Z,68.71
2022-12-18T19:21:38.132Z,68.93
2022-12-18T19:23:40.972Z,69.04
2022-12-18T19:25:43.736Z,69.38
2022-12-18T19:27:46.535Z,69.12
2022-12-18T19:29:51.575Z,69.28
2022-12-18T19:31:54.285Z,68.59
2022-12-18T19:33:57.511Z,69.40
2022-12-18T19:36:00.683Z,69.37
2022-12-18T19:38:03.506Z,68.33
2022-12-18T19:40:12.103Z,68.58
2022-12-18T19:42:18.899Z,69.01
2022-12-18T19:44:24.246Z,68.51
2022-12-18T19:46:28.389Z,68.69
2022-12-18T19:48:31.597Z,69.34
2022-12-18T19:50:34.846Z,69.30
2022-12-18T19:52:37.850Z,68.37
2022-12-18T19:54:40.681Z,68.98
2022-12-18T19:56:43.436Z,68.64
2022-12-18T19:58:46.735Z,68.44
2022-12-18T20:00:49.531Z,68.56
2022-12-18T20:02:58.394Z,69.14
2022-12-18T20:05:08.665Z,68.91
2022-12-18T20:07:12.565Z,69.06
2022-12-18T20:09:15.729Z,68.91
2022-12-18T20:11:19.514Z,68.51
2022-12-18T20:13:22.361Z,68.67
2022-12-18T20:15:25.173Z,68.76
2022-12-18T20:17:28.522Z,69.59
2022-12-18T20:19:33.795Z,69.54
2022-12-18T20:21:37.691Z,69.27
2022-12-18T20:23:40.838Z,69.19
2022-12-18T20:25:43.901Z,69.96
2022-12-18T20:27:46.768Z,69.64
2022-12-18T20:29:49.605Z,69.19
2022-12-18T20:31:52.530Z,69.92
2022-12-18T20:34:00.221Z,69.83
2022-12-18T20:36:08.217Z,69.17
2022-12-18T20:38:11.435Z,70.24
2022-12-18T20:40:15.255Z,69.47
2022-12-18T20:42:18.122Z,70.21
2022-12-18T20:44:22.305Z,70.26
2022-12-18T20:46:26.192Z,69.35
2022-12-18T20:48:29.204Z,69.00
2022-12-18T20:50:32.095Z,69.92
2022-12-18T20:52:41.857Z,70.28
2022-12-18T20:54:45.847Z,69.72
2022-12-18T20:56:48.685Z,70.01
2022-12-18T20:58:54.900Z,69.56
2022-12-18T21:01:04.845Z,69.96
2022-12-18T21:03:08.066Z,69.17
2022-12-18T21:05:11.045Z,70.54
2022-12-18T21:07:13.785Z,69.73
2022-12-18T21:09:18.072Z,70.18
2022-12-18T21:11:46.653Z,70.11
2022-12-18T21:13:49.456Z,69.98
2022-12-18T21:15:54.392Z,70.57
2022-12-18T21:17:57.068Z,70.01
2022-12-18T21:19:59.968Z,70.62
2022-12-18T21:22:03.321Z,70.57
2022-12-18T21:24:07.772Z,70.48
2022-12-18T21:26:19.463Z,69.88
2022-12-18T21:28:22.470Z,69.68
2022-12-18T21:30:25.277Z,69.64
2022-12-18T21:32:29.267Z,69.68
2022-12-18T21:34:35.055Z,70.25
2022-12-18T21:36:37.952Z,70.70
2022-12-18T21:38:40.769Z,70.46
2022-12-18T21:40:43.685Z,70.32
2022-12-18T21:43:05.686Z,69.61
2022-12-18T21:45:09.276Z,69.67
2022-12-18T21:47:21.638Z,69.76
2022-12-18T21:49:25.559Z,70.22
2022-12-18T21:51:28.708Z,69.78
2022-12-18T21:53:31.514Z,70.54
2022-12-18T21:55:34.277Z,70.57
2022-12-18T21:57:37.764Z,69.97
2022-12-18T21:59:43.501Z,70.71
2022-12-18T22:01:46.843Z,70.98
2022-12-18T22:03:49.692Z,70.96
2022-12-18T22:06:04.085Z,70.30
2022-12-18T22:08:12.371Z,69.84
2022-12-18T22:10:15.387Z,70.72
2022-12-18T22:12:35.225Z,69.69
2022-12-18T22:14:38.455Z,70.01
2022-12-18T22:16:42.927Z,69.64
2022-12-18T22:18:46.578Z,70.78
2022-12-18T22:20:49.350Z,69.47
2022-12-18T22:22:52.979Z,70.80
2022-12-18T22:24:55.784Z,70.59
2022-12-18T22:27:01.815Z,70.19
2022-12-18T22:29:23.046Z,69.63
2022-12-18T22:31:25.876Z,70.09
2022-12-18T22:33:30.174Z,69.50
2022-12-18T22:35:32.963Z,69.30
2022-12-18T22:37:35.791Z,68.84
2022-12-18T22:39:40.143Z,68.01
2022-12-18T22:41:43.629Z,69.23
2022-12-18T22:43:46.371Z,69.40
2022-12-18T22:45:49.130Z,68.93
2022-12-18T22:47:52.324Z,69.04
2022-12-18T22:49:56.435Z,68.52
2022-12-18T22:51:59.133Z,69.86
2022-12-18T22:54:01.899Z,69.62
2022-12-18T22:56:05.247Z,70.00
2022-12-18T22:58:08.001Z,70.00
2022-12-18T23:00:12.073Z,69.10
2022-12-18T23:02:14.974Z,68.94
2022-12-18T23:04:18.452Z,69.12
2022-12-18T23:06:24.693Z,70.45
2022-12-18T23:08:27.613Z,69.44
2022-12-18T23:10:32.629Z,69.86
2022-12-18T23:12:37.435Z,70.14
2022-12-18T23:14:41.056Z,70.03
2022-12-18T23:16:44.002Z,68.89
2022-12-18T23:18:53.745Z,69.78
2022-12-18T23:20:56.509Z,68.70
2022-12-18T23:23:02.109Z,68.98
2022-12-18T23:25:05.448Z,70.04
2022-12-18T23:27:11.724Z,68.94
2022-12-18T23:29:14.989Z,69.63
2022-12-18T23:31:19.434Z,68.86
2022-12-18T23:33:22.286Z,69.70
2022-12-18T23:35:25.356Z,68.38
2022-12-18T23:37:56.943Z,68.81
2022-12-18T23:39:52.198Z,69.01
2022-12-18T23:41:54.917Z,69.34
2022-12-18T23:43:58.376Z,68.79
2022-12-18T23:46:01.191Z,68.54
2022-12-18T23:48:04.017Z,69.26
2022-12-18T23:50:08.027Z,68.77
2022-12-18T23:52:10.792Z,68.45
2022-12-18T23:54:13.572Z,68.57
2022-12-18T23:56:17.757Z,68.15
2022-12-18T23:58:22.222Z,69.01
